sensor_id;sensor_type;location;lat;lon;timestamp;pressure;altitude;pressure_sealevel;temperature;humidity
78411;BME280;67706;51.074;-1.796;2024-03-06T00:02:19;101442.81;;;2.53;100.00
78411;BME280;67706;51.074;-1.796;2024-03-06T00:04:45;101430.09;;;2.54;100.00
78411;BME280;67706;51.074;-1.796;2024-03-06T00:07:12;101436.19;;;2.46;100.00
78411;BME280;67706;51.074;-1.796;2024-03-06T00:09:40;101434.25;;;2.37;100.00
78411;BME280;67706;51.074;-1.796;2024-03-06T00:12:07;101433.88;;;2.62;100.00
78411;BME280;67706;51.074;-1.796;2024-03-06T00:14:33;101428.78;;;2.48;100.00
78411;BME280;67706;51.074;-1.796;2024-03-06T00:17:01;101439.56;;;2.38;100.00
78411;BME280;67706;51.074;-1.796;2024-03-06T00:19:30;101436.19;;;2.46;100.00
78411;BME280;67706;51.074;-1.796;2024-03-06T00:21:56;101437.09;;;2.35;100.00
78411;BME280;67706;51.074;-1.796;2024-03-06T00:24:23;101438.56;;;2.39;100.00
78411;BME280;67706;51.074;-1.796;2024-03-06T00:26:51;101440.63;;;2.47;100.00
78411;BME280;67706;51.074;-1.796;2024-03-06T00:29:18;101434.00;;;2.40;100.00
78411;BME280;67706;51.074;-1.796;2024-03-06T00:31:45;101445.16;;;2.26;100.00
78411;BME280;67706;51.074;-1.796;2024-03-06T00:34:13;101443.19;;;2.28;100.00
78411;BME280;67706;51.074;-1.796;2024-03-06T00:36:40;101443.34;;;2.15;100.00
78411;BME280;67706;51.074;-1.796;2024-03-06T00:39:07;101451.13;;;2.09;100.00
78411;BME280;67706;51.074;-1.796;2024-03-06T00:41:34;101448.16;;;2.12;100.00
78411;BME280;67706;51.074;-1.796;2024-03-06T00:44:03;101447.19;;;2.13;100.00
78411;BME280;67706;51.074;-1.796;2024-03-06T00:46:29;101453.56;;;2.12;100.00
78411;BME280;67706;51.074;-1.796;2024-03-06T00:48:56;101449.47;;;1.97;100.00
78411;BME280;67706;51.074;-1.796;2024-03-06T00:51:22;101449.69;;;1.94;100.00
78411;BME280;67706;51.074;-1.796;2024-03-06T00:53:49;101455.13;;;1.94;100.00
78411;BME280;67706;51.074;-1.796;2024-03-06T00:56:16;101437.19;;;1.82;100.00
78411;BME280;67706;51.074;-1.796;2024-03-06T00:58:42;101450.47;;;1.85;100.00
78411;BME280;67706;51.074;-1.796;2024-03-06T01:01:10;101451.47;;;1.84;100.00
78411;BME280;67706;51.074;-1.796;2024-03-06T01:03:37;101446.66;;;1.76;100.00
78411;BME280;67706;51.074;-1.796;2024-03-06T01:06:04;101448.31;;;1.68;100.00
78411;BME280;67706;51.074;-1.796;2024-03-06T01:08:30;101458.25;;;1.67;100.00
78411;BME280;67706;51.074;-1.796;2024-03-06T01:10:57;101458.50;;;1.64;100.00
78411;BME280;67706;51.074;-1.796;2024-03-06T01:13:24;101459.59;;;1.61;100.00
78411;BME280;67706;51.074;-1.796;2024-03-06T01:15:50;101458.88;;;1.59;100.00
78411;BME280;67706;51.074;-1.796;2024-03-06T01:18:18;101463.03;;;1.63;100.00
78411;BME280;67706;51.074;-1.796;2024-03-06T01:20:45;101462.81;;;1.67;100.00
78411;BME280;67706;51.074;-1.796;2024-03-06T01:23:11;101459.88;;;1.58;100.00
78411;BME280;67706;51.074;-1.796;2024-03-06T01:25:38;101455.94;;;1.51;100.00
78411;BME280;67706;51.074;-1.796;2024-03-06T01:28:05;101461.72;;;1.47;100.00
78411;BME280;67706;51.074;-1.796;2024-03-06T01:30:31;101455.56;;;1.45;100.00
78411;BME280;67706;51.074;-1.796;2024-03-06T01:32:58;101460.75;;;1.48;100.00
78411;BME280;67706;51.074;-1.796;2024-03-06T01:35:26;101461.13;;;1.43;100.00
78411;BME280;67706;51.074;-1.796;2024-03-06T01:37:53;101460.25;;;1.43;100.00
78411;BME280;67706;51.074;-1.796;2024-03-06T01:40:19;101462.06;;;1.53;100.00
78411;BME280;67706;51.074;-1.796;2024-03-06T01:42:46;101453.22;;;1.51;100.00
78411;BME280;67706;51.074;-1.796;2024-03-06T01:45:13;101466.75;;;1.40;100.00
78411;BME280;67706;51.074;-1.796;2024-03-06T01:47:40;101461.84;;;1.34;100.00
78411;BME280;67706;51.074;-1.796;2024-03-06T01:50:08;101451.41;;;1.41;100.00
78411;BME280;67706;51.074;-1.796;2024-03-06T01:52:37;101447.09;;;1.49;100.00
78411;BME280;67706;51.074;-1.796;2024-03-06T01:55:06;101450.53;;;1.40;100.00
78411;BME280;67706;51.074;-1.796;2024-03-06T01:57:33;101458.78;;;1.39;100.00
78411;BME280;67706;51.074;-1.796;2024-03-06T02:00:01;101467.13;;;1.58;100.00
78411;BME280;67706;51.074;-1.796;2024-03-06T02:02:30;101460.97;;;1.56;100.00
78411;BME280;67706;51.074;-1.796;2024-03-06T02:04:56;101466.00;;;1.49;100.00
78411;BME280;67706;51.074;-1.796;2024-03-06T02:07:25;101462.22;;;1.41;100.00
78411;BME280;67706;51.074;-1.796;2024-03-06T02:09:53;101465.19;;;1.38;100.00
78411;BME280;67706;51.074;-1.796;2024-03-06T02:12:20;101467.50;;;1.31;100.00
78411;BME280;67706;51.074;-1.796;2024-03-06T02:14:46;101464.31;;;1.15;100.00
78411;BME280;67706;51.074;-1.796;2024-03-06T02:17:13;101464.31;;;1.04;100.00
78411;BME280;67706;51.074;-1.796;2024-03-06T02:19:41;101464.56;;;1.01;100.00
78411;BME280;67706;51.074;-1.796;2024-03-06T02:22:10;101461.97;;;1.00;100.00
78411;BME280;67706;51.074;-1.796;2024-03-06T02:24:38;101466.50;;;0.99;100.00
78411;BME280;67706;51.074;-1.796;2024-03-06T02:27:05;101453.28;;;0.96;100.00
78411;BME280;67706;51.074;-1.796;2024-03-06T02:29:32;101458.38;;;0.88;100.00
78411;BME280;67706;51.074;-1.796;2024-03-06T02:31:59;101457.41;;;0.78;100.00
78411;BME280;67706;51.074;-1.796;2024-03-06T02:34:27;101458.88;;;0.82;100.00
78411;BME280;67706;51.074;-1.796;2024-03-06T02:36:54;101458.16;;;0.91;100.00
78411;BME280;67706;51.074;-1.796;2024-03-06T02:39:23;101448.09;;;0.93;100.00
78411;BME280;67706;51.074;-1.796;2024-03-06T02:41:49;101458.28;;;0.90;100.00
78411;BME280;67706;51.074;-1.796;2024-03-06T02:44:16;101452.75;;;0.91;100.00
78411;BME280;67706;51.074;-1.796;2024-03-06T02:46:46;101458.16;;;0.91;100.00
78411;BME280;67706;51.074;-1.796;2024-03-06T02:49:14;101449.94;;;0.93;100.00
78411;BME280;67706;51.074;-1.796;2024-03-06T02:51:41;101453.63;;;0.92;100.00
78411;BME280;67706;51.074;-1.796;2024-03-06T02:54:07;101449.94;;;0.93;100.00
78411;BME280;67706;51.074;-1.796;2024-03-06T02:56:35;101446.50;;;0.91;100.00
78411;BME280;67706;51.074;-1.796;2024-03-06T02:59:02;101445.84;;;0.76;100.00
78411;BME280;67706;51.074;-1.796;2024-03-06T03:01:29;101449.78;;;0.72;100.00
78411;BME280;67706;51.074;-1.796;2024-03-06T03:03:56;101448.34;;;0.79;100.00
78411;BME280;67706;51.074;-1.796;2024-03-06T03:06:22;101447.59;;;0.88;100.00
78411;BME280;67706;51.074;-1.796;2024-03-06T03:08:50;101451.78;;;0.92;100.00
78411;BME280;67706;51.074;-1.796;2024-03-06T03:11:16;101441.00;;;0.92;100.00
78411;BME280;67706;51.074;-1.796;2024-03-06T03:13:44;101440.22;;;0.90;100.00
78411;BME280;67706;51.074;-1.796;2024-03-06T03:16:15;101444.63;;;0.80;100.00
78411;BME280;67706;51.074;-1.796;2024-03-06T03:18:43;101442.31;;;0.87;100.00
78411;BME280;67706;51.074;-1.796;2024-03-06T03:21:10;101446.13;;;0.95;100.00
78411;BME280;67706;51.074;-1.796;2024-03-06T03:23:37;101437.75;;;0.76;100.00
78411;BME280;67706;51.074;-1.796;2024-03-06T03:26:04;101440.63;;;0.86;100.00
78411;BME280;67706;51.074;-1.796;2024-03-06T03:28:31;101447.34;;;0.91;100.00
78411;BME280;67706;51.074;-1.796;2024-03-06T03:31:00;101457.66;;;0.97;100.00
78411;BME280;67706;51.074;-1.796;2024-03-06T03:33:26;101454.84;;;0.99;100.00
78411;BME280;67706;51.074;-1.796;2024-03-06T03:35:53;101451.16;;;1.00;100.00
78411;BME280;67706;51.074;-1.796;2024-03-06T03:38:20;101457.19;;;1.03;100.00
78411;BME280;67706;51.074;-1.796;2024-03-06T03:40:46;101454.09;;;0.97;100.00
78411;BME280;67706;51.074;-1.796;2024-03-06T03:43:13;101451.78;;;1.03;100.00
78411;BME280;67706;51.074;-1.796;2024-03-06T03:45:39;101444.41;;;1.05;100.00
78411;BME280;67706;51.074;-1.796;2024-03-06T03:48:07;101453.63;;;1.03;100.00
78411;BME280;67706;51.074;-1.796;2024-03-06T03:50:34;101453.75;;;1.01;100.00
78411;BME280;67706;51.074;-1.796;2024-03-06T03:53:01;101456.31;;;0.92;100.00
78411;BME280;67706;51.074;-1.796;2024-03-06T03:55:27;101457.56;;;0.88;100.00
78411;BME280;67706;51.074;-1.796;2024-03-06T03:57:54;101450.31;;;0.99;100.00
78411;BME280;67706;51.074;-1.796;2024-03-06T04:00:22;101455.72;;;0.99;100.00
78411;BME280;67706;51.074;-1.796;2024-03-06T04:02:48;101456.56;;;0.77;100.00
78411;BME280;67706;51.074;-1.796;2024-03-06T04:05:16;101464.53;;;0.79;100.00
78411;BME280;67706;51.074;-1.796;2024-03-06T04:07:43;101464.16;;;0.72;100.00
78411;BME280;67706;51.074;-1.796;2024-03-06T04:10:10;101464.00;;;0.63;100.00
78411;BME280;67706;51.074;-1.796;2024-03-06T04:12:37;101456.09;;;0.49;100.00
78411;BME280;67706;51.074;-1.796;2024-03-06T04:15:05;101461.13;;;0.42;100.00
78411;BME280;67706;51.074;-1.796;2024-03-06T04:17:34;101453.22;;;0.28;100.00
78411;BME280;67706;51.074;-1.796;2024-03-06T04:20:00;101455.94;;;0.28;100.00
78411;BME280;67706;51.074;-1.796;2024-03-06T04:22:29;101457.47;;;0.20;100.00
78411;BME280;67706;51.074;-1.796;2024-03-06T04:24:56;101466.91;;;0.14;100.00
78411;BME280;67706;51.074;-1.796;2024-03-06T04:27:24;101477.53;;;0.05;100.00
78411;BME280;67706;51.074;-1.796;2024-03-06T04:29:51;101483.16;;;0.02;100.00
78411;BME280;67706;51.074;-1.796;2024-03-06T04:32:17;101482.16;;;0.26;100.00
78411;BME280;67706;51.074;-1.796;2024-03-06T04:34:44;101489.00;;;0.19;100.00
78411;BME280;67706;51.074;-1.796;2024-03-06T04:37:11;101486.28;;;0.19;100.00
78411;BME280;67706;51.074;-1.796;2024-03-06T04:39:39;101487.41;;;0.17;100.00
78411;BME280;67706;51.074;-1.796;2024-03-06T04:42:06;101492.81;;;0.17;100.00
78411;BME280;67706;51.074;-1.796;2024-03-06T04:44:33;101498.63;;;0.11;100.00
78411;BME280;67706;51.074;-1.796;2024-03-06T04:47:00;101491.41;;;0.11;100.00
78411;BME280;67706;51.074;-1.796;2024-03-06T04:49:26;101493.25;;;0.11;100.00
78411;BME280;67706;51.074;-1.796;2024-03-06T04:51:53;101497.25;;;0.05;100.00
78411;BME280;67706;51.074;-1.796;2024-03-06T04:54:19;101493.16;;;0.12;100.00
78411;BME280;67706;51.074;-1.796;2024-03-06T04:56:48;101495.78;;;0.25;100.00
78411;BME280;67706;51.074;-1.796;2024-03-06T04:59:14;101496.34;;;0.17;100.00
78411;BME280;67706;51.074;-1.796;2024-03-06T05:01:41;101508.34;;;0.13;100.00
78411;BME280;67706;51.074;-1.796;2024-03-06T05:04:09;101499.97;;;0.05;100.00
78411;BME280;67706;51.074;-1.796;2024-03-06T05:06:35;101510.13;;;0.02;100.00
78411;BME280;67706;51.074;-1.796;2024-03-06T05:09:02;101513.91;;;-0.01;100.00
78411;BME280;67706;51.074;-1.796;2024-03-06T05:11:29;101510.53;;;0.08;100.00
78411;BME280;67706;51.074;-1.796;2024-03-06T05:13:59;101510.16;;;0.13;100.00
78411;BME280;67706;51.074;-1.796;2024-03-06T05:16:26;101505.19;;;-0.05;100.00
78411;BME280;67706;51.074;-1.796;2024-03-06T05:18:53;101513.28;;;-0.05;100.00
78411;BME280;67706;51.074;-1.796;2024-03-06T05:21:19;101516.72;;;-0.03;100.00
78411;BME280;67706;51.074;-1.796;2024-03-06T05:23:47;101509.88;;;0.05;100.00
78411;BME280;67706;51.074;-1.796;2024-03-06T05:26:14;101514.53;;;0.03;100.00
78411;BME280;67706;51.074;-1.796;2024-03-06T05:28:40;101511.22;;;-0.01;100.00
78411;BME280;67706;51.074;-1.796;2024-03-06T05:31:15;101514.19;;;0.07;100.00
78411;BME280;67706;51.074;-1.796;2024-03-06T05:33:43;101498.75;;;0.09;100.00
78411;BME280;67706;51.074;-1.796;2024-03-06T05:36:10;101516.28;;;0.04;100.00
78411;BME280;67706;51.074;-1.796;2024-03-06T05:38:38;101522.16;;;0.09;100.00
78411;BME280;67706;51.074;-1.796;2024-03-06T05:41:05;101521.47;;;0.18;100.00
78411;BME280;67706;51.074;-1.796;2024-03-06T05:43:32;101523.66;;;0.13;100.00
78411;BME280;67706;51.074;-1.796;2024-03-06T05:45:58;101531.88;;;0.11;100.00
78411;BME280;67706;51.074;-1.796;2024-03-06T05:48:27;101524.66;;;0.12;100.00
78411;BME280;67706;51.074;-1.796;2024-03-06T05:50:54;101536.94;;;0.16;100.00
78411;BME280;67706;51.074;-1.796;2024-03-06T05:53:20;101542.31;;;0.16;100.00
78411;BME280;67706;51.074;-1.796;2024-03-06T05:55:47;101538.69;;;0.28;100.00
78411;BME280;67706;51.074;-1.796;2024-03-06T05:58:13;101547.78;;;0.27;100.00
78411;BME280;67706;51.074;-1.796;2024-03-06T06:00:41;101533.75;;;0.22;100.00
78411;BME280;67706;51.074;-1.796;2024-03-06T06:03:08;101531.19;;;0.20;100.00
78411;BME280;67706;51.074;-1.796;2024-03-06T06:05:38;101544.56;;;0.22;100.00
78411;BME280;67706;51.074;-1.796;2024-03-06T06:08:05;101545.63;;;0.19;100.00
78411;BME280;67706;51.074;-1.796;2024-03-06T06:10:32;101539.47;;;0.06;100.00
78411;BME280;67706;51.074;-1.796;2024-03-06T06:12:58;101543.00;;;0.07;100.00
78411;BME280;67706;51.074;-1.796;2024-03-06T06:15:25;101550.13;;;0.08;100.00
78411;BME280;67706;51.074;-1.796;2024-03-06T06:17:52;101555.28;;;0.11;100.00
78411;BME280;67706;51.074;-1.796;2024-03-06T06:20:19;101553.03;;;0.05;100.00
78411;BME280;67706;51.074;-1.796;2024-03-06T06:22:47;101546.16;;;0.00;100.00
78411;BME280;67706;51.074;-1.796;2024-03-06T06:25:13;101552.38;;;0.14;100.00
78411;BME280;67706;51.074;-1.796;2024-03-06T06:27:41;101554.53;;;0.09;100.00
78411;BME280;67706;51.074;-1.796;2024-03-06T06:30:08;101557.34;;;0.07;100.00
78411;BME280;67706;51.074;-1.796;2024-03-06T06:32:37;101550.88;;;0.10;100.00
78411;BME280;67706;51.074;-1.796;2024-03-06T06:35:04;101566.88;;;0.00;100.00
78411;BME280;67706;51.074;-1.796;2024-03-06T06:37:31;101571.88;;;-0.07;100.00
78411;BME280;67706;51.074;-1.796;2024-03-06T06:40:00;101558.13;;;-0.04;100.00
78411;BME280;67706;51.074;-1.796;2024-03-06T06:42:31;101566.53;;;0.05;100.00
78411;BME280;67706;51.074;-1.796;2024-03-06T06:44:58;101562.88;;;0.06;100.00
78411;BME280;67706;51.074;-1.796;2024-03-06T06:47:25;101566.81;;;0.13;100.00
78411;BME280;67706;51.074;-1.796;2024-03-06T06:49:52;101567.28;;;0.07;100.00
78411;BME280;67706;51.074;-1.796;2024-03-06T06:52:18;101570.97;;;0.06;100.00
78411;BME280;67706;51.074;-1.796;2024-03-06T06:54:46;101567.28;;;0.07;100.00
78411;BME280;67706;51.074;-1.796;2024-03-06T06:57:15;101572.63;;;0.19;100.00
78411;BME280;67706;51.074;-1.796;2024-03-06T06:59:42;101560.78;;;0.09;100.00
78411;BME280;67706;51.074;-1.796;2024-03-06T07:02:08;101561.88;;;0.07;100.00
78411;BME280;67706;51.074;-1.796;2024-03-06T07:04:35;101569.22;;;0.05;100.00
78411;BME280;67706;51.074;-1.796;2024-03-06T07:07:02;101565.91;;;0.01;100.00
78411;BME280;67706;51.074;-1.796;2024-03-06T07:09:29;101565.19;;;-0.14;100.00
78411;BME280;67706;51.074;-1.796;2024-03-06T07:11:56;101567.06;;;0.10;100.00
78411;BME280;67706;51.074;-1.796;2024-03-06T07:14:24;101567.13;;;0.21;100.00
78411;BME280;67706;51.074;-1.796;2024-03-06T07:16:50;101572.44;;;0.10;100.00
78411;BME280;67706;51.074;-1.796;2024-03-06T07:19:17;101576.31;;;0.18;100.00
78411;BME280;67706;51.074;-1.796;2024-03-06T07:21:44;101571.38;;;0.12;100.00
78411;BME280;67706;51.074;-1.796;2024-03-06T07:24:11;101578.13;;;0.18;100.00
78411;BME280;67706;51.074;-1.796;2024-03-06T07:26:37;101558.22;;;0.08;100.00
78411;BME280;67706;51.074;-1.796;2024-03-06T07:29:04;101579.78;;;0.08;100.00
78411;BME280;67706;51.074;-1.796;2024-03-06T07:31:39;101581.75;;;0.06;100.00
78411;BME280;67706;51.074;-1.796;2024-03-06T07:34:06;101580.22;;;0.14;100.00
78411;BME280;67706;51.074;-1.796;2024-03-06T07:36:33;101580.28;;;0.13;100.00
78411;BME280;67706;51.074;-1.796;2024-03-06T07:39:00;101576.94;;;0.22;100.00
78411;BME280;67706;51.074;-1.796;2024-03-06T07:41:26;101589.13;;;0.27;100.00
78411;BME280;67706;51.074;-1.796;2024-03-06T07:43:53;101579.13;;;0.17;100.00
78411;BME280;67706;51.074;-1.796;2024-03-06T07:46:20;101586.03;;;0.21;100.00
78411;BME280;67706;51.074;-1.796;2024-03-06T07:48:50;101587.13;;;0.06;100.00
78411;BME280;67706;51.074;-1.796;2024-03-06T07:51:16;101602.75;;;0.13;100.00
78411;BME280;67706;51.074;-1.796;2024-03-06T07:53:43;101597.44;;;0.24;100.00
78411;BME280;67706;51.074;-1.796;2024-03-06T07:56:10;101605.19;;;0.29;100.00
78411;BME280;67706;51.074;-1.796;2024-03-06T07:58:37;101596.44;;;0.25;100.00
78411;BME280;67706;51.074;-1.796;2024-03-06T08:01:04;101596.91;;;0.43;100.00
78411;BME280;67706;51.074;-1.796;2024-03-06T08:03:31;101601.91;;;0.60;100.00
78411;BME280;67706;51.074;-1.796;2024-03-06T08:06:00;101609.94;;;0.49;100.00
78411;BME280;67706;51.074;-1.796;2024-03-06T08:08:27;101598.28;;;0.48;100.00
78411;BME280;67706;51.074;-1.796;2024-03-06T08:10:54;101600.56;;;0.54;100.00
78411;BME280;67706;51.074;-1.796;2024-03-06T08:13:20;101608.75;;;0.53;100.00
78411;BME280;67706;51.074;-1.796;2024-03-06T08:15:47;101614.72;;;0.69;100.00
78411;BME280;67706;51.074;-1.796;2024-03-06T08:18:13;101608.41;;;0.81;100.00
78411;BME280;67706;51.074;-1.796;2024-03-06T08:20:40;101619.03;;;1.06;100.00
78411;BME280;67706;51.074;-1.796;2024-03-06T08:23:09;101611.19;;;1.14;100.00
78411;BME280;67706;51.074;-1.796;2024-03-06T08:25:36;101610.75;;;0.86;100.00
78411;BME280;67706;51.074;-1.796;2024-03-06T08:28:03;101608.44;;;0.92;100.00
78411;BME280;67706;51.074;-1.796;2024-03-06T08:30:30;101614.59;;;0.94;100.00
78411;BME280;67706;51.074;-1.796;2024-03-06T08:32:57;101616.69;;;1.02;100.00
78411;BME280;67706;51.074;-1.796;2024-03-06T08:35:24;101615.69;;;1.03;100.00
78411;BME280;67706;51.074;-1.796;2024-03-06T08:37:51;101629.47;;;1.00;100.00
78411;BME280;67706;51.074;-1.796;2024-03-06T08:40:19;101622.22;;;1.11;100.00
78411;BME280;67706;51.074;-1.796;2024-03-06T08:42:46;101611.69;;;1.08;100.00
78411;BME280;67706;51.074;-1.796;2024-03-06T08:45:14;101616.66;;;1.25;100.00
78411;BME280;67706;51.074;-1.796;2024-03-06T08:47:41;101613.19;;;1.34;100.00
78411;BME280;67706;51.074;-1.796;2024-03-06T08:50:09;101621.78;;;1.28;100.00
78411;BME280;67706;51.074;-1.796;2024-03-06T08:52:36;101622.06;;;1.47;100.00
78411;BME280;67706;51.074;-1.796;2024-03-06T08:55:04;101619.72;;;1.43;100.00
78411;BME280;67706;51.074;-1.796;2024-03-06T08:57:32;101624.28;;;1.53;100.00
78411;BME280;67706;51.074;-1.796;2024-03-06T08:59:59;101630.44;;;1.55;100.00
78411;BME280;67706;51.074;-1.796;2024-03-06T09:02:25;101623.81;;;1.59;100.00
78411;BME280;67706;51.074;-1.796;2024-03-06T09:04:53;101629.44;;;1.45;100.00
78411;BME280;67706;51.074;-1.796;2024-03-06T09:07:19;101630.97;;;1.72;100.00
78411;BME280;67706;51.074;-1.796;2024-03-06T09:09:48;101632.91;;;1.58;100.00
78411;BME280;67706;51.074;-1.796;2024-03-06T09:12:15;101634.63;;;1.71;100.00
78411;BME280;67706;51.074;-1.796;2024-03-06T09:14:44;101629.47;;;1.79;100.00
78411;BME280;67706;51.074;-1.796;2024-03-06T09:17:11;101632.19;;;2.01;100.00
78411;BME280;67706;51.074;-1.796;2024-03-06T09:19:40;101640.78;;;2.17;100.00
78411;BME280;67706;51.074;-1.796;2024-03-06T09:22:07;101638.41;;;2.46;100.00
78411;BME280;67706;51.074;-1.796;2024-03-06T09:24:34;101641.41;;;2.74;100.00
78411;BME280;67706;51.074;-1.796;2024-03-06T09:27:03;101645.56;;;2.35;100.00
78411;BME280;67706;51.074;-1.796;2024-03-06T09:29:30;101640.66;;;2.18;100.00
78411;BME280;67706;51.074;-1.796;2024-03-06T09:31:58;101643.84;;;2.34;100.00
78411;BME280;67706;51.074;-1.796;2024-03-06T09:34:25;101635.50;;;2.69;100.00
78411;BME280;67706;51.074;-1.796;2024-03-06T09:36:51;101640.00;;;2.48;100.00
78411;BME280;67706;51.074;-1.796;2024-03-06T09:39:19;101643.72;;;2.79;100.00
78411;BME280;67706;51.074;-1.796;2024-03-06T09:41:46;101641.88;;;2.79;100.00
78411;BME280;67706;51.074;-1.796;2024-03-06T09:44:14;101639.69;;;3.05;100.00
78411;BME280;67706;51.074;-1.796;2024-03-06T09:46:42;101635.47;;;3.12;100.00
78411;BME280;67706;51.074;-1.796;2024-03-06T09:49:13;101647.06;;;3.35;100.00
78411;BME280;67706;51.074;-1.796;2024-03-06T09:51:42;101649.69;;;3.46;100.00
78411;BME280;67706;51.074;-1.796;2024-03-06T09:54:11;101648.88;;;3.55;100.00
78411;BME280;67706;51.074;-1.796;2024-03-06T09:56:41;101645.19;;;3.56;100.00
78411;BME280;67706;51.074;-1.796;2024-03-06T09:59:09;101651.16;;;3.50;100.00
78411;BME280;67706;51.074;-1.796;2024-03-06T10:01:37;101652.66;;;3.63;100.00
78411;BME280;67706;51.074;-1.796;2024-03-06T10:04:19;101660.59;;;3.76;100.00
78411;BME280;67706;51.074;-1.796;2024-03-06T10:06:46;101649.53;;;3.98;100.00
78411;BME280;67706;51.074;-1.796;2024-03-06T10:09:16;101656.88;;;4.07;100.00
78411;BME280;67706;51.074;-1.796;2024-03-06T10:11:43;101664.66;;;4.21;100.00
78411;BME280;67706;51.074;-1.796;2024-03-06T10:14:10;101658.81;;;4.26;100.00
78411;BME280;67706;51.074;-1.796;2024-03-06T10:16:37;101662.47;;;4.06;100.00
78411;BME280;67706;51.074;-1.796;2024-03-06T10:19:15;101656.47;;;4.42;100.00
78411;BME280;67706;51.074;-1.796;2024-03-06T10:21:46;101660.63;;;4.55;100.00
78411;BME280;67706;51.074;-1.796;2024-03-06T10:24:17;101660.78;;;4.63;100.00
78411;BME280;67706;51.074;-1.796;2024-03-06T10:26:45;101664.22;;;4.65;100.00
78411;BME280;67706;51.074;-1.796;2024-03-06T10:29:16;101657.97;;;4.74;100.00
78411;BME280;67706;51.074;-1.796;2024-03-06T10:31:51;101662.56;;;4.83;100.00
78411;BME280;67706;51.074;-1.796;2024-03-06T10:34:20;101656.41;;;5.01;100.00
78411;BME280;67706;51.074;-1.796;2024-03-06T10:36:53;101657.56;;;5.08;100.00
78411;BME280;67706;51.074;-1.796;2024-03-06T10:39:21;101649.97;;;5.21;100.00
78411;BME280;67706;51.074;-1.796;2024-03-06T10:41:52;101660.84;;;5.30;100.00
78411;BME280;67706;51.074;-1.796;2024-03-06T10:44:21;101661.09;;;5.56;100.00
78411;BME280;67706;51.074;-1.796;2024-03-06T10:46:54;101656.81;;;5.63;100.00
78411;BME280;67706;51.074;-1.796;2024-03-06T10:49:23;101653.06;;;5.74;100.00
78411;BME280;67706;51.074;-1.796;2024-03-06T10:51:52;101659.50;;;5.82;100.00
78411;BME280;67706;51.074;-1.796;2024-03-06T10:54:21;101659.22;;;5.95;100.00
78411;BME280;67706;51.074;-1.796;2024-03-06T10:56:49;101655.72;;;6.02;100.00
78411;BME280;67706;51.074;-1.796;2024-03-06T10:59:18;101659.25;;;6.22;100.00
78411;BME280;67706;51.074;-1.796;2024-03-06T11:01:46;101651.22;;;6.48;100.00
78411;BME280;67706;51.074;-1.796;2024-03-06T11:04:13;101657.78;;;6.55;100.00
78411;BME280;67706;51.074;-1.796;2024-03-06T11:06:40;101650.81;;;6.87;100.00
78411;BME280;67706;51.074;-1.796;2024-03-06T11:09:09;101644.97;;;7.00;100.00
78411;BME280;67706;51.074;-1.796;2024-03-06T11:11:48;101642.19;;;7.09;100.00
78411;BME280;67706;51.074;-1.796;2024-03-06T11:14:16;101644.91;;;7.27;100.00
78411;BME280;67706;51.074;-1.796;2024-03-06T11:16:57;101651.84;;;7.39;100.00
78411;BME280;67706;51.074;-1.796;2024-03-06T11:19:25;101646.81;;;7.52;100.00
78411;BME280;67706;51.074;-1.796;2024-03-06T11:21:52;101640.53;;;7.77;100.00
78411;BME280;67706;51.074;-1.796;2024-03-06T11:24:21;101654.78;;;7.89;100.00
78411;BME280;67706;51.074;-1.796;2024-03-06T11:26:50;101644.22;;;7.94;100.00
78411;BME280;67706;51.074;-1.796;2024-03-06T11:29:18;101651.50;;;8.11;100.00
78411;BME280;67706;51.074;-1.796;2024-03-06T11:32:05;101631.66;;;8.27;100.00
78411;BME280;67706;51.074;-1.796;2024-03-06T11:34:35;101645.38;;;8.43;100.00
78411;BME280;67706;51.074;-1.796;2024-03-06T11:37:04;101640.28;;;8.48;100.00
78411;BME280;67706;51.074;-1.796;2024-03-06T11:39:38;101638.94;;;8.60;100.00
78411;BME280;67706;51.074;-1.796;2024-03-06T11:42:06;101642.06;;;8.65;100.00
78411;BME280;67706;51.074;-1.796;2024-03-06T11:44:36;101635.75;;;8.80;100.00
78411;BME280;67706;51.074;-1.796;2024-03-06T11:47:04;101643.47;;;8.85;100.00
78411;BME280;67706;51.074;-1.796;2024-03-06T11:49:33;101637.50;;;8.98;100.00
78411;BME280;67706;51.074;-1.796;2024-03-06T11:52:02;101637.34;;;9.07;100.00
78411;BME280;67706;51.074;-1.796;2024-03-06T11:54:30;101629.31;;;9.22;100.00
78411;BME280;67706;51.074;-1.796;2024-03-06T11:57:00;101634.97;;;9.20;100.00
78411;BME280;67706;51.074;-1.796;2024-03-06T11:59:29;101629.50;;;9.36;100.00
78411;BME280;67706;51.074;-1.796;2024-03-06T12:01:58;101630.88;;;9.32;100.00
78411;BME280;67706;51.074;-1.796;2024-03-06T12:04:27;101633.44;;;9.50;100.00
78411;BME280;67706;51.074;-1.796;2024-03-06T12:06:56;101628.16;;;9.56;100.00
78411;BME280;67706;51.074;-1.796;2024-03-06T12:09:23;101636.00;;;9.76;100.00
78411;BME280;67706;51.074;-1.796;2024-03-06T12:11:50;101628.78;;;9.83;100.00
78411;BME280;67706;51.074;-1.796;2024-03-06T12:14:19;101629.47;;;9.93;100.00
78411;BME280;67706;51.074;-1.796;2024-03-06T12:16:54;101617.78;;;10.15;100.00
78411;BME280;67706;51.074;-1.796;2024-03-06T12:19:22;101628.06;;;10.21;100.00
78411;BME280;67706;51.074;-1.796;2024-03-06T12:21:49;101620.16;;;10.10;100.00
78411;BME280;67706;51.074;-1.796;2024-03-06T12:24:17;101623.47;;;10.13;100.00
78411;BME280;67706;51.074;-1.796;2024-03-06T12:26:44;101620.88;;;10.12;100.00
78411;BME280;67706;51.074;-1.796;2024-03-06T12:29:18;101623.59;;;10.28;100.00
78411;BME280;67706;51.074;-1.796;2024-03-06T12:31:45;101619.91;;;10.44;100.00
78411;BME280;67706;51.074;-1.796;2024-03-06T12:34:13;101610.13;;;10.41;100.00
78411;BME280;67706;51.074;-1.796;2024-03-06T12:36:40;101610.38;;;10.62;100.00
78411;BME280;67706;51.074;-1.796;2024-03-06T12:39:07;101615.84;;;10.70;100.00
78411;BME280;67706;51.074;-1.796;2024-03-06T12:41:38;101613.25;;;10.69;100.00
78411;BME280;67706;51.074;-1.796;2024-03-06T12:44:05;101603.81;;;10.71;100.00